sensor_id;sensor_type;location;lat;lon;timestamp;P1;durP1;ratioP1;P2;durP2;ratioP2
43670;SDS011;29267;50.906;7.248;2023-07-31T00:01:59;6.13;;;3.00;;
43670;SDS011;29267;50.906;7.248;2023-07-31T00:04:25;8.25;;;2.85;;
43670;SDS011;29267;50.906;7.248;2023-07-31T00:06:50;5.85;;;2.85;;
43670;SDS011;29267;50.906;7.248;2023-07-31T00:09:16;5.10;;;2.33;;
43670;SDS011;29267;50.906;7.248;2023-07-31T00:11:42;7.10;;;2.65;;
43670;SDS011;29267;50.906;7.248;2023-07-31T00:14:07;6.93;;;2.60;;
43670;SDS011;29267;50.906;7.248;2023-07-31T00:16:33;9.70;;;3.10;;
43670;SDS011;29267;50.906;7.248;2023-07-31T00:18:58;8.38;;;2.38;;
43670;SDS011;29267;50.906;7.248;2023-07-31T00:21:24;7.68;;;4.00;;
43670;SDS011;29267;50.906;7.248;2023-07-31T00:23:49;8.50;;;3.47;;
43670;SDS011;29267;50.906;7.248;2023-07-31T00:26:15;6.18;;;2.70;;
43670;SDS011;29267;50.906;7.248;2023-07-31T00:28:41;7.05;;;2.92;;
43670;SDS011;29267;50.906;7.248;2023-07-31T00:31:06;12.77;;;2.88;;
43670;SDS011;29267;50.906;7.248;2023-07-31T00:33:34;8.30;;;3.30;;
43670;SDS011;29267;50.906;7.248;2023-07-31T00:35:59;10.90;;;3.30;;
43670;SDS011;29267;50.906;7.248;2023-07-31T00:38:25;9.82;;;2.92;;
43670;SDS011;29267;50.906;7.248;2023-07-31T00:40:51;4.82;;;2.58;;
43670;SDS011;29267;50.906;7.248;2023-07-31T00:43:16;10.55;;;3.58;;
43670;SDS011;29267;50.906;7.248;2023-07-31T00:45:42;11.57;;;4.28;;
43670;SDS011;29267;50.906;7.248;2023-07-31T00:48:07;7.55;;;3.17;;
43670;SDS011;29267;50.906;7.248;2023-07-31T00:50:33;9.18;;;3.53;;
43670;SDS011;29267;50.906;7.248;2023-07-31T00:53:00;7.15;;;2.85;;
43670;SDS011;29267;50.906;7.248;2023-07-31T00:55:26;9.02;;;2.80;;
43670;SDS011;29267;50.906;7.248;2023-07-31T00:57:52;10.63;;;2.95;;
43670;SDS011;29267;50.906;7.248;2023-07-31T01:00:20;7.28;;;2.88;;
43670;SDS011;29267;50.906;7.248;2023-07-31T01:02:46;6.60;;;2.72;;
43670;SDS011;29267;50.906;7.248;2023-07-31T01:05:13;7.90;;;2.88;;
43670;SDS011;29267;50.906;7.248;2023-07-31T01:10:16;4.03;;;2.20;;
43670;SDS011;29267;50.906;7.248;2023-07-31T01:12:46;6.60;;;3.13;;
43670;SDS011;29267;50.906;7.248;2023-07-31T01:15:13;5.88;;;2.55;;
43670;SDS011;29267;50.906;7.248;2023-07-31T01:17:41;8.32;;;3.10;;
43670;SDS011;29267;50.906;7.248;2023-07-31T01:20:10;5.85;;;2.88;;
43670;SDS011;29267;50.906;7.248;2023-07-31T01:27:57;6.70;;;3.30;;
43670;SDS011;29267;50.906;7.248;2023-07-31T01:30:27;5.43;;;2.30;;
43670;SDS011;29267;50.906;7.248;2023-07-31T01:32:58;6.07;;;3.30;;
43670;SDS011;29267;50.906;7.248;2023-07-31T01:35:27;7.63;;;2.75;;
43670;SDS011;29267;50.906;7.248;2023-07-31T01:37:53;7.63;;;2.50;;
43670;SDS011;29267;50.906;7.248;2023-07-31T01:40:19;7.78;;;2.40;;
43670;SDS011;29267;50.906;7.248;2023-07-31T01:42:44;5.88;;;2.50;;
43670;SDS011;29267;50.906;7.248;2023-07-31T01:45:10;6.50;;;2.63;;
43670;SDS011;29267;50.906;7.248;2023-07-31T01:47:36;5.88;;;3.30;;
43670;SDS011;29267;50.906;7.248;2023-07-31T01:50:02;6.07;;;2.35;;
43670;SDS011;29267;50.906;7.248;2023-07-31T01:52:27;5.05;;;2.78;;
43670;SDS011;29267;50.906;7.248;2023-07-31T01:54:54;7.15;;;3.22;;
43670;SDS011;29267;50.906;7.248;2023-07-31T01:57:20;5.82;;;2.17;;
43670;SDS011;29267;50.906;7.248;2023-07-31T01:59:46;4.57;;;2.35;;
43670;SDS011;29267;50.906;7.248;2023-07-31T02:02:11;6.97;;;2.80;;
43670;SDS011;29267;50.906;7.248;2023-07-31T02:04:37;7.95;;;2.70;;
43670;SDS011;29267;50.906;7.248;2023-07-31T02:07:04;6.50;;;2.35;;
43670;SDS011;29267;50.906;7.248;2023-07-31T02:09:30;4.68;;;2.35;;
43670;SDS011;29267;50.906;7.248;2023-07-31T02:11:55;6.68;;;2.88;;
43670;SDS011;29267;50.906;7.248;2023-07-31T02:14:21;7.43;;;2.60;;
43670;SDS011;29267;50.906;7.248;2023-07-31T02:16:47;6.55;;;2.58;;
43670;SDS011;29267;50.906;7.248;2023-07-31T02:19:12;4.05;;;2.20;;
43670;SDS011;29267;50.906;7.248;2023-07-31T02:21:38;8.07;;;3.03;;
43670;SDS011;29267;50.906;7.248;2023-07-31T02:24:03;6.97;;;2.45;;
43670;SDS011;29267;50.906;7.248;2023-07-31T02:26:29;4.18;;;2.10;;
43670;SDS011;29267;50.906;7.248;2023-07-31T02:28:55;5.90;;;2.08;;
43670;SDS011;29267;50.906;7.248;2023-07-31T02:31:20;9.73;;;2.47;;
43670;SDS011;29267;50.906;7.248;2023-07-31T02:33:46;5.20;;;2.60;;
43670;SDS011;29267;50.906;7.248;2023-07-31T02:36:11;8.25;;;2.22;;
43670;SDS011;29267;50.906;7.248;2023-07-31T02:38:37;9.05;;;2.35;;
43670;SDS011;29267;50.906;7.248;2023-07-31T02:41:03;8.10;;;2.60;;
43670;SDS011;29267;50.906;7.248;2023-07-31T02:43:28;5.47;;;2.67;;
43670;SDS011;29267;50.906;7.248;2023-07-31T02:45:54;3.53;;;2.30;;
43670;SDS011;29267;50.906;7.248;2023-07-31T02:48:19;3.67;;;2.22;;
43670;SDS011;29267;50.906;7.248;2023-07-31T02:50:45;10.07;;;3.17;;
43670;SDS011;29267;50.906;7.248;2023-07-31T02:53:12;3.63;;;2.03;;
43670;SDS011;29267;50.906;7.248;2023-07-31T02:55:38;4.75;;;2.30;;
43670;SDS011;29267;50.906;7.248;2023-07-31T02:58:03;4.25;;;2.25;;
43670;SDS011;29267;50.906;7.248;2023-07-31T03:00:29;6.78;;;2.33;;
43670;SDS011;29267;50.906;7.248;2023-07-31T03:02:55;6.75;;;2.72;;
43670;SDS011;29267;50.906;7.248;2023-07-31T03:05:20;6.18;;;2.42;;
43670;SDS011;29267;50.906;7.248;2023-07-31T03:07:46;6.93;;;3.30;;
43670;SDS011;29267;50.906;7.248;2023-07-31T03:10:11;7.85;;;2.30;;
43670;SDS011;29267;50.906;7.248;2023-07-31T03:12:37;7.70;;;2.83;;
43670;SDS011;29267;50.906;7.248;2023-07-31T03:15:03;4.10;;;2.20;;
43670;SDS011;29267;50.906;7.248;2023-07-31T03:17:29;8.43;;;2.83;;
43670;SDS011;29267;50.906;7.248;2023-07-31T03:19:54;7.70;;;3.08;;
43670;SDS011;29267;50.906;7.248;2023-07-31T03:22:20;8.73;;;3.10;;
43670;SDS011;29267;50.906;7.248;2023-07-31T03:24:45;6.95;;;2.63;;
43670;SDS011;29267;50.906;7.248;2023-07-31T03:27:11;8.68;;;2.72;;
43670;SDS011;29267;50.906;7.248;2023-07-31T03:29:36;10.18;;;2.92;;
43670;SDS011;29267;50.906;7.248;2023-07-31T03:32:02;6.43;;;2.97;;
43670;SDS011;29267;50.906;7.248;2023-07-31T03:34:28;8.18;;;2.50;;
43670;SDS011;29267;50.906;7.248;2023-07-31T03:36:54;9.60;;;2.72;;
43670;SDS011;29267;50.906;7.248;2023-07-31T03:39:20;4.45;;;2.53;;
43670;SDS011;29267;50.906;7.248;2023-07-31T03:41:45;7.07;;;3.13;;
43670;SDS011;29267;50.906;7.248;2023-07-31T03:44:11;5.68;;;2.40;;
43670;SDS011;29267;50.906;7.248;2023-07-31T03:46:36;10.77;;;3.65;;
43670;SDS011;29267;50.906;7.248;2023-07-31T03:49:02;8.40;;;2.63;;
43670;SDS011;29267;50.906;7.248;2023-07-31T03:51:28;5.13;;;2.58;;
43670;SDS011;29267;50.906;7.248;2023-07-31T03:53:53;6.88;;;2.63;;
43670;SDS011;29267;50.906;7.248;2023-07-31T03:56:19;10.25;;;2.95;;
43670;SDS011;29267;50.906;7.248;2023-07-31T03:58:44;8.52;;;2.88;;
43670;SDS011;29267;50.906;7.248;2023-07-31T04:01:10;7.90;;;2.85;;
43670;SDS011;29267;50.906;7.248;2023-07-31T04:03:36;6.80;;;2.92;;
43670;SDS011;29267;50.906;7.248;2023-07-31T04:06:01;9.68;;;2.85;;
43670;SDS011;29267;50.906;7.248;2023-07-31T04:08:27;6.38;;;2.40;;
43670;SDS011;29267;50.906;7.248;2023-07-31T04:10:53;8.77;;;3.15;;
43670;SDS011;29267;50.906;7.248;2023-07-31T04:13:18;7.28;;;3.15;;
43670;SDS011;29267;50.906;7.248;2023-07-31T04:15:48;5.30;;;2.38;;
43670;SDS011;29267;50.906;7.248;2023-07-31T04:18:16;7.47;;;2.70;;
43670;SDS011;29267;50.906;7.248;2023-07-31T04:20:42;7.68;;;3.38;;
43670;SDS011;29267;50.906;7.248;2023-07-31T04:23:07;14.90;;;3.35;;
43670;SDS011;29267;50.906;7.248;2023-07-31T04:25:33;12.13;;;3.45;;
43670;SDS011;29267;50.906;7.248;2023-07-31T04:27:59;10.15;;;3.50;;
43670;SDS011;29267;50.906;7.248;2023-07-31T04:30:25;7.70;;;3.30;;
43670;SDS011;29267;50.906;7.248;2023-07-31T04:32:51;14.90;;;3.60;;
43670;SDS011;29267;50.906;7.248;2023-07-31T04:35:16;10.05;;;3.92;;
43670;SDS011;29267;50.906;7.248;2023-07-31T04:37:42;12.00;;;3.10;;
43670;SDS011;29267;50.906;7.248;2023-07-31T04:40:09;8.52;;;3.80;;
43670;SDS011;29267;50.906;7.248;2023-07-31T04:42:35;9.07;;;3.22;;
43670;SDS011;29267;50.906;7.248;2023-07-31T04:45:01;10.18;;;3.10;;
43670;SDS011;29267;50.906;7.248;2023-07-31T04:47:26;7.18;;;2.72;;
43670;SDS011;29267;50.906;7.248;2023-07-31T04:49:52;6.65;;;3.03;;
43670;SDS011;29267;50.906;7.248;2023-07-31T04:52:17;8.40;;;2.63;;
43670;SDS011;29267;50.906;7.248;2023-07-31T04:54:43;7.38;;;2.67;;
43670;SDS011;29267;50.906;7.248;2023-07-31T04:57:08;5.60;;;2.50;;
43670;SDS011;29267;50.906;7.248;2023-07-31T04:59:34;4.53;;;2.10;;
43670;SDS011;29267;50.906;7.248;2023-07-31T05:01:59;8.73;;;3.22;;
43670;SDS011;29267;50.906;7.248;2023-07-31T05:04:25;7.40;;;3.30;;
43670;SDS011;29267;50.906;7.248;2023-07-31T05:06:51;11.75;;;2.90;;
43670;SDS011;29267;50.906;7.248;2023-07-31T05:09:16;7.60;;;2.83;;
43670;SDS011;29267;50.906;7.248;2023-07-31T05:11:42;3.85;;;2.67;;
43670;SDS011;29267;50.906;7.248;2023-07-31T05:14:08;16.25;;;3.25;;
43670;SDS011;29267;50.906;7.248;2023-07-31T05:16:34;7.72;;;2.67;;
43670;SDS011;29267;50.906;7.248;2023-07-31T05:19:00;7.28;;;2.80;;
43670;SDS011;29267;50.906;7.248;2023-07-31T05:21:25;8.15;;;3.20;;
43670;SDS011;29267;50.906;7.248;2023-07-31T05:23:51;7.30;;;2.90;;
43670;SDS011;29267;50.906;7.248;2023-07-31T05:26:16;10.85;;;2.95;;
43670;SDS011;29267;50.906;7.248;2023-07-31T05:28:42;4.97;;;2.92;;
43670;SDS011;29267;50.906;7.248;2023-07-31T05:31:08;5.88;;;2.70;;
43670;SDS011;29267;50.906;7.248;2023-07-31T05:33:33;7.65;;;2.80;;
43670;SDS011;29267;50.906;7.248;2023-07-31T05:35:59;5.60;;;2.92;;
43670;SDS011;29267;50.906;7.248;2023-07-31T05:38:24;6.22;;;2.78;;
43670;SDS011;29267;50.906;7.248;2023-07-31T05:40:50;4.03;;;2.95;;
43670;SDS011;29267;50.906;7.248;2023-07-31T05:43:16;9.25;;;3.38;;
43670;SDS011;29267;50.906;7.248;2023-07-31T05:45:42;9.02;;;3.15;;
43670;SDS011;29267;50.906;7.248;2023-07-31T05:48:08;9.32;;;3.10;;
43670;SDS011;29267;50.906;7.248;2023-07-31T05:50:33;8.57;;;3.35;;
43670;SDS011;29267;50.906;7.248;2023-07-31T05:52:59;7.22;;;2.85;;
43670;SDS011;29267;50.906;7.248;2023-07-31T05:55:25;5.03;;;2.80;;
43670;SDS011;29267;50.906;7.248;2023-07-31T05:57:54;5.38;;;2.70;;
43670;SDS011;29267;50.906;7.248;2023-07-31T06:00:19;4.80;;;2.17;;
43670;SDS011;29267;50.906;7.248;2023-07-31T06:02:46;6.60;;;2.78;;
43670;SDS011;29267;50.906;7.248;2023-07-31T06:05:12;9.82;;;3.08;;
43670;SDS011;29267;50.906;7.248;2023-07-31T06:07:38;7.53;;;2.70;;
43670;SDS011;29267;50.906;7.248;2023-07-31T06:10:04;8.73;;;3.08;;
43670;SDS011;29267;50.906;7.248;2023-07-31T06:12:34;9.68;;;2.97;;
43670;SDS011;29267;50.906;7.248;2023-07-31T06:15:00;5.22;;;2.95;;
43670;SDS011;29267;50.906;7.248;2023-07-31T06:17:26;5.18;;;2.97;;
43670;SDS011;29267;50.906;7.248;2023-07-31T06:19:52;7.75;;;3.05;;
43670;SDS011;29267;50.906;7.248;2023-07-31T06:22:18;6.40;;;3.17;;
43670;SDS011;29267;50.906;7.248;2023-07-31T06:24:44;5.97;;;2.75;;
43670;SDS011;29267;50.906;7.248;2023-07-31T06:27:09;8.20;;;2.65;;
43670;SDS011;29267;50.906;7.248;2023-07-31T06:29:36;9.52;;;3.03;;
43670;SDS011;29267;50.906;7.248;2023-07-31T06:32:01;6.25;;;3.40;;
43670;SDS011;29267;50.906;7.248;2023-07-31T06:34:27;7.60;;;3.50;;
43670;SDS011;29267;50.906;7.248;2023-07-31T06:36:53;9.02;;;3.25;;
43670;SDS011;29267;50.906;7.248;2023-07-31T06:39:18;8.23;;;2.92;;
43670;SDS011;29267;50.906;7.248;2023-07-31T06:41:44;12.00;;;4.05;;
43670;SDS011;29267;50.906;7.248;2023-07-31T06:44:10;5.22;;;2.75;;
43670;SDS011;29267;50.906;7.248;2023-07-31T06:46:35;8.10;;;2.97;;
43670;SDS011;29267;50.906;7.248;2023-07-31T06:49:01;4.75;;;2.80;;
43670;SDS011;29267;50.906;7.248;2023-07-31T06:51:27;6.30;;;2.75;;
43670;SDS011;29267;50.906;7.248;2023-07-31T06:53:53;6.65;;;2.90;;
43670;SDS011;29267;50.906;7.248;2023-07-31T06:56:18;5.38;;;3.08;;
43670;SDS011;29267;50.906;7.248;2023-07-31T06:58:44;6.97;;;2.88;;
43670;SDS011;29267;50.906;7.248;2023-07-31T07:01:09;8.43;;;2.85;;
43670;SDS011;29267;50.906;7.248;2023-07-31T07:03:35;8.40;;;2.92;;
43670;SDS011;29267;50.906;7.248;2023-07-31T07:06:00;7.80;;;3.38;;
43670;SDS011;29267;50.906;7.248;2023-07-31T07:08:26;6.57;;;2.42;;
43670;SDS011;29267;50.906;7.248;2023-07-31T07:10:52;6.97;;;3.55;;
43670;SDS011;29267;50.906;7.248;2023-07-31T07:13:17;6.97;;;2.65;;
43670;SDS011;29267;50.906;7.248;2023-07-31T07:15:43;4.07;;;2.60;;
43670;SDS011;29267;50.906;7.248;2023-07-31T07:18:16;5.68;;;2.95;;
43670;SDS011;29267;50.906;7.248;2023-07-31T07:20:52;11.90;;;2.47;;
43670;SDS011;29267;50.906;7.248;2023-07-31T07:23:18;5.45;;;2.80;;
43670;SDS011;29267;50.906;7.248;2023-07-31T07:25:45;6.88;;;3.17;;
43670;SDS011;29267;50.906;7.248;2023-07-31T07:28:12;5.40;;;2.80;;
43670;SDS011;29267;50.906;7.248;2023-07-31T07:30:38;3.80;;;2.30;;
43670;SDS011;29267;50.906;7.248;2023-07-31T07:33:03;4.93;;;2.70;;
43670;SDS011;29267;50.906;7.248;2023-07-31T07:35:29;4.50;;;2.35;;
43670;SDS011;29267;50.906;7.248;2023-07-31T07:37:54;5.65;;;2.45;;
43670;SDS011;29267;50.906;7.248;2023-07-31T07:40:20;7.38;;;3.08;;
43670;SDS011;29267;50.906;7.248;2023-07-31T07:42:46;4.40;;;2.45;;
43670;SDS011;29267;50.906;7.248;2023-07-31T07:45:12;6.88;;;2.85;;
43670;SDS011;29267;50.906;7.248;2023-07-31T07:47:38;7.72;;;2.33;;
43670;SDS011;29267;50.906;7.248;2023-07-31T07:50:05;9.93;;;3.33;;
43670;SDS011;29267;50.906;7.248;2023-07-31T07:52:32;3.72;;;2.58;;
43670;SDS011;29267;50.906;7.248;2023-07-31T07:54:57;5.28;;;2.65;;
43670;SDS011;29267;50.906;7.248;2023-07-31T07:57:23;6.38;;;2.65;;
43670;SDS011;29267;50.906;7.248;2023-07-31T07:59:48;6.18;;;3.17;;
43670;SDS011;29267;50.906;7.248;2023-07-31T08:02:14;8.93;;;3.80;;
43670;SDS011;29267;50.906;7.248;2023-07-31T08:04:39;5.97;;;3.15;;
43670;SDS011;29267;50.906;7.248;2023-07-31T08:07:05;5.22;;;2.95;;
43670;SDS011;29267;50.906;7.248;2023-07-31T08:09:31;5.78;;;3.22;;
43670;SDS011;29267;50.906;7.248;2023-07-31T08:11:56;9.15;;;3.17;;
43670;SDS011;29267;50.906;7.248;2023-07-31T08:14:27;7.18;;;3.45;;
43670;SDS011;29267;50.906;7.248;2023-07-31T08:16:52;7.45;;;3.78;;
43670;SDS011;29267;50.906;7.248;2023-07-31T08:19:18;8.15;;;3.22;;
43670;SDS011;29267;50.906;7.248;2023-07-31T08:21:44;7.15;;;2.90;;
43670;SDS011;29267;50.906;7.248;2023-07-31T08:24:09;6.03;;;2.80;;
43670;SDS011;29267;50.906;7.248;2023-07-31T08:26:35;6.78;;;3.13;;
43670;SDS011;29267;50.906;7.248;2023-07-31T08:29:00;5.88;;;2.75;;
43670;SDS011;29267;50.906;7.248;2023-07-31T08:31:26;7.13;;;3.15;;
43670;SDS011;29267;50.906;7.248;2023-07-31T08:33:52;8.15;;;3.47;;
43670;SDS011;29267;50.906;7.248;2023-07-31T08:36:17;7.47;;;3.72;;
43670;SDS011;29267;50.906;7.248;2023-07-31T08:38:44;5.80;;;2.78;;
43670;SDS011;29267;50.906;7.248;2023-07-31T08:41:10;8.27;;;3.30;;
43670;SDS011;29267;50.906;7.248;2023-07-31T08:43:37;12.25;;;3.70;;
43670;SDS011;29267;50.906;7.248;2023-07-31T08:46:03;8.68;;;3.17;;
43670;SDS011;29267;50.906;7.248;2023-07-31T08:48:29;5.93;;;2.33;;
43670;SDS011;29267;50.906;7.248;2023-07-31T08:50:56;8.70;;;3.17;;
43670;SDS011;29267;50.906;7.248;2023-07-31T08:53:22;8.85;;;2.55;;
43670;SDS011;29267;50.906;7.248;2023-07-31T08:55:48;7.95;;;3.20;;
43670;SDS011;29267;50.906;7.248;2023-07-31T08:58:14;6.80;;;3.53;;
43670;SDS011;29267;50.906;7.248;2023-07-31T09:00:40;7.88;;;2.80;;
43670;SDS011;29267;50.906;7.248;2023-07-31T09:03:09;7.35;;;3.47;;
43670;SDS011;29267;50.906;7.248;2023-07-31T09:05:43;8.77;;;2.70;;
43670;SDS011;29267;50.906;7.248;2023-07-31T09:08:12;7.22;;;2.78;;
43670;SDS011;29267;50.906;7.248;2023-07-31T09:10:42;7.90;;;3.10;;
43670;SDS011;29267;50.906;7.248;2023-07-31T09:13:10;4.65;;;2.70;;
43670;SDS011;29267;50.906;7.248;2023-07-31T09:15:36;6.25;;;2.80;;
43670;SDS011;29267;50.906;7.248;2023-07-31T09:18:06;6.57;;;3.05;;
43670;SDS011;29267;50.906;7.248;2023-07-31T09:20:32;9.00;;;3.42;;
43670;SDS011;29267;50.906;7.248;2023-07-31T09:23:04;3.83;;;2.28;;
43670;SDS011;29267;50.906;7.248;2023-07-31T09:25:34;5.75;;;2.47;;
43670;SDS011;29267;50.906;7.248;2023-07-31T09:28:01;5.72;;;2.17;;
43670;SDS011;29267;50.906;7.248;2023-07-31T09:30:29;5.70;;;2.35;;
43670;SDS011;29267;50.906;7.248;2023-07-31T09:33:01;5.65;;;3.00;;
43670;SDS011;29267;50.906;7.248;2023-07-31T09:37:57;5.90;;;2.53;;
43670;SDS011;29267;50.906;7.248;2023-07-31T09:40:34;5.95;;;3.15;;
43670;SDS011;29267;50.906;7.248;2023-07-31T09:43:03;8.30;;;2.45;;
43670;SDS011;29267;50.906;7.248;2023-07-31T09:45:34;8.60;;;2.58;;
43670;SDS011;29267;50.906;7.248;2023-07-31T09:48:03;3.65;;;2.33;;
43670;SDS011;29267;50.906;7.248;2023-07-31T09:50:36;5.15;;;2.17;;
43670;SDS011;29267;50.906;7.248;2023-07-31T09:53:03;4.72;;;2.17;;
43670;SDS011;29267;50.906;7.248;2023-07-31T09:55:30;3.67;;;2.33;;
43670;SDS011;29267;50.906;7.248;2023-07-31T09:57:57;7.60;;;2.17;;
43670;SDS011;29267;50.906;7.248;2023-07-31T10:00:23;5.80;;;3.00;;
43670;SDS011;29267;50.906;7.248;2023-07-31T10:02:52;9.20;;;2.03;;
43670;SDS011;29267;50.906;7.248;2023-07-31T10:05:19;5.07;;;2.58;;
43670;SDS011;29267;50.906;7.248;2023-07-31T10:07:50;8.25;;;2.50;;
43670;SDS011;29267;50.906;7.248;2023-07-31T10:10:19;7.18;;;3.20;;
43670;SDS011;29267;50.906;7.248;2023-07-31T10:12:46;5.90;;;2.67;;
43670;SDS011;29267;50.906;7.248;2023-07-31T10:15:14;7.50;;;2.60;;
43670;SDS011;29267;50.906;7.248;2023-07-31T10:17:40;5.82;;;2.83;;
43670;SDS011;29267;50.906;7.248;2023-07-31T10:20:07;6.45;;;2.50;;
43670;SDS011;29267;50.906;7.248;2023-07-31T10:22:33;6.28;;;2.67;;
43670;SDS011;29267;50.906;7.248;2023-07-31T10:24:59;5.03;;;2.53;;
43670;SDS011;29267;50.906;7.248;2023-07-31T10:27:25;6.32;;;2.80;;
43670;SDS011;29267;50.906;7.248;2023-07-31T10:29:52;4.72;;;2.42;;
43670;SDS011;29267;50.906;7.248;2023-07-31T10:32:20;7.20;;;2.60;;
43670;SDS011;29267;50.906;7.248;2023-07-31T10:34:47;8.10;;;2.42;;
43670;SDS011;29267;50.906;7.248;2023-07-31T10:37:21;6.13;;;2.40;;
43670;SDS011;29267;50.906;7.248;2023-07-31T10:40:03;5.05;;;2.08;;
43670;SDS011;29267;50.906;7.248;2023-07-31T10:42:32;4.53;;;2.33;;
43670;SDS011;29267;50.906;7.248;2023-07-31T10:45:00;11.45;;;2.80;;
43670;SDS011;29267;50.906;7.248;2023-07-31T10:47:30;5.28;;;2.22;;
43670;SDS011;29267;50.906;7.248;2023-07-31T10:52:38;4.60;;;2.13;;
43670;SDS011;29267;50.906;7.248;2023-07-31T10:57:48;3.85;;;2.28;;
43670;SDS011;29267;50.906;7.248;2023-07-31T11:00:32;9.30;;;2.55;;
43670;SDS011;29267;50.906;7.248;2023-07-31T11:08:28;3.22;;;2.05;;
43670;SDS011;29267;50.906;7.248;2023-07-31T11:13:30;3.75;;;2.38;;
43670;SDS011;29267;50.906;7.248;2023-07-31T11:15:57;7.22;;;2.45;;
43670;SDS011;29267;50.906;7.248;2023-07-31T11:18:23;5.60;;;2.60;;
43670;SDS011;29267;50.906;7.248;2023-07-31T11:20:50;4.35;;;2.58;;
43670;SDS011;29267;50.906;7.248;2023-07-31T11:23:16;5.22;;;2.28;;
43670;SDS011;29267;50.906;7.248;2023-07-31T11:25:42;6.30;;;2.50;;
43670;SDS011;29267;50.906;7.248;2023-07-31T11:28:09;7.15;;;2.45;;
43670;SDS011;29267;50.906;7.248;2023-07-31T11:30:36;4.22;;;2.03;;
43670;SDS011;29267;50.906;7.248;2023-07-31T11:33:04;5.40;;;1.90;;
43670;SDS011;29267;50.906;7.248;2023-07-31T11:35:31;4.63;;;1.67;;
43670;SDS011;29267;50.906;7.248;2023-07-31T11:37:58;4.20;;;1.33;;
43670;SDS011;29267;50.906;7.248;2023-07-31T11:40:24;2.35;;;1.35;;
43670;SDS011;29267;50.906;7.248;2023-07-31T11:42:56;3.63;;;1.33;;
43670;SDS011;29267;50.906;7.248;2023-07-31T11:45:28;3.72;;;1.33;;
43670;SDS011;29267;50.906;7.248;2023-07-31T11:47:55;2.65;;;1.27;;
43670;SDS011;29267;50.906;7.248;2023-07-31T11:50:22;2.70;;;1.35;;
43670;SDS011;29267;50.906;7.248;2023-07-31T11:52:52;5.07;;;1.65;;
43670;SDS011;29267;50.906;7.248;2023-07-31T11:55:21;3.38;;;1.85;;
43670;SDS011;29267;50.906;7.248;2023-07-31T11:57:47;10.40;;;1.85;;
43670;SDS011;29267;50.906;7.248;2023-07-31T12:00:13;4.75;;;1.50;;
43670;SDS011;29267;50.906;7.248;2023-07-31T12:02:40;4.82;;;1.20;;
43670;SDS011;29267;50.906;7.248;2023-07-31T12:05:10;3.58;;;1.30;;
43670;SDS011;29267;50.906;7.248;2023-07-31T12:07:44;2.25;;;1.35;;
43670;SDS011;29267;50.906;7.248;2023-07-31T12:10:30;3.40;;;1.30;;
43670;SDS011;29267;50.906;7.248;2023-07-31T12:15:33;1.83;;;1.30;;
43670;SDS011;29267;50.906;7.248;2023-07-31T12:18:07;4.03;;;1.15;;
43670;SDS011;29267;50.906;7.248;2023-07-31T12:20:34;2.53;;;0.90;;
43670;SDS011;29267;50.906;7.248;2023-07-31T12:23:00;1.55;;;1.02;;
43670;SDS011;29267;50.906;7.248;2023-07-31T12:25:30;1.50;;;1.08;;
43670;SDS011;29267;50.906;7.248;2023-07-31T12:27:57;0.95;;;0.70;;
43670;SDS011;29267;50.906;7.248;2023-07-31T12:30:27;1.58;;;1.00;;
43670;SDS011;29267;50.906;7.248;2023-07-31T12:33:18;2.15;;;1.08;;
43670;SDS011;29267;50.906;7.248;2023-07-31T12:35:45;2.13;;;0.98;;
43670;SDS011;29267;50.906;7.248;2023-07-31T12:38:14;2.78;;;0.80;;
43670;SDS011;29267;50.906;7.248;2023-07-31T12:40:40;1.58;;;1.45;;
43670;SDS011;29267;50.906;7.248;2023-07-31T12:43:07;1.30;;;0.73;;
43670;SDS011;29267;50.906;7.248;2023-07-31T12:45:33;3.70;;;1.20;;
43670;SDS011;29267;50.906;7.248;2023-07-31T12:48:00;3.60;;;1.13;;
43670;SDS011;29267;50.906;7.248;2023-07-31T12:50:26;2.08;;;0.85;;
43670;SDS011;29267;50.906;7.248;2023-07-31T12:52:55;1.33;;;0.90;;
43670;SDS011;29267;50.906;7.248;2023-07-31T12:55:21;2.38;;;1.08;;
43670;SDS011;29267;50.906;7.248;2023-07-31T12:57:47;2.10;;;1.00;;
43670;SDS011;29267;50.906;7.248;2023-07-31T13:00:13;3.42;;;0.85;;
43670;SDS011;29267;50.906;7.248;2023-07-31T13:02:39;1.85;;;1.30;;
43670;SDS011;29267;50.906;7.248;2023-07-31T13:05:05;2.05;;;1.35;;
43670;SDS011;29267;50.906;7.248;2023-07-31T13:07:31;2.95;;;1.20;;
43670;SDS011;29267;50.906;7.248;2023-07-31T13:09:57;1.73;;;1.15;;
43670;SDS011;29267;50.906;7.248;2023-07-31T13:12:22;2.15;;;1.48;;
43670;SDS011;29267;50.906;7.248;2023-07-31T13:14:48;2.30;;;1.38;;
43670;SDS011;29267;50.906;7.248;2023-07-31T13:17:13;4.32;;;2.00;;
43670;SDS011;29267;50.906;7.248;2023-07-31T13:19:39;6.47;;;1.30;;
43670;SDS011;29267;50.906;7.248;2023-07-31T13:22:04;2.13;;;1.65;;
43670;SDS011;29267;50.906;7.248;2023-07-31T13:24:30;2.50;;;1.45;;
43670;SDS011;29267;50.906;7.248;2023-07-31T13:26:56;2.83;;;1.50;;
43670;SDS011;29267;50.906;7.248;2023-07-31T13:29:22;3.20;;;1.83;;
43670;SDS011;29267;50.906;7.248;2023-07-31T13:31:48;2.60;;;1.60;;
43670;SDS011;29267;50.906;7.248;2023-07-31T13:34:14;3.63;;;1.38;;
43670;SDS011;29267;50.906;7.248;2023-07-31T13:36:40;4.47;;;2.20;;
43670;SDS011;29267;50.906;7.248;2023-07-31T13:39:06;2.72;;;1.63;;
43670;SDS011;29267;50.906;7.248;2023-07-31T13:41:32;3.53;;;2.17;;
43670;SDS011;29267;50.906;7.248;2023-07-31T13:43:58;3.20;;;1.98;;
43670;SDS011;29267;50.906;7.248;2023-07-31T13:46:23;3.22;;;1.70;;
43670;SDS011;29267;50.906;7.248;2023-07-31T13:48:50;3.33;;;2.20;;
43670;SDS011;29267;50.906;7.248;2023-07-31T13:51:16;3.28;;;2.10;;
43670;SDS011;29267;50.906;7.248;2023-07-31T13:53:41;6.07;;;2.13;;
43670;SDS011;29267;50.906;7.248;2023-07-31T13:56:07;4.40;;;2.38;;
43670;SDS011;29267;50.906;7.248;2023-07-31T13:58:33;4.53;;;2.33;;
43670;SDS011;29267;50.906;7.248;2023-07-31T14:00:58;4.35;;;2.20;;
43670;SDS011;29267;50.906;7.248;2023-07-31T14:03:24;4.03;;;2.20;;
43670;SDS011;29267;50.906;7.248;2023-07-31T14:05:49;6.47;;;2.40;;
43670;SDS011;29267;50.906;7.248;2023-07-31T14:08:16;3.30;;;2.00;;
43670;SDS011;29267;50.906;7.248;2023-07-31T14:10:42;6.88;;;2.35;;
43670;SDS011;29267;50.906;7.248;2023-07-31T14:13:07;3.70;;;2.30;;
43670;SDS011;29267;50.906;7.248;2023-07-31T14:15:33;3.08;;;2.08;;
43670;SDS011;29267;50.906;7.248;2023-07-31T14:18:00;3.97;;;1.60;;
43670;SDS011;29267;50.906;7.248;2023-07-31T14:20:26;2.72;;;1.75;;
43670;SDS011;29267;50.906;7.248;2023-07-31T14:22:52;2.55;;;1.40;;
43670;SDS011;29267;50.906;7.248;2023-07-31T14:25:18;2.75;;;1.52;;
43670;SDS011;29267;50.906;7.248;2023-07-31T14:27:43;2.47;;;1.45;;
43670;SDS011;29267;50.906;7.248;2023-07-31T14:30:09;4.10;;;1.33;;
43670;SDS011;29267;50.906;7.248;2023-07-31T14:32:34;3.80;;;1.40;;
43670;SDS011;29267;50.906;7.248;2023-07-31T14:35:02;2.60;;;1.70;;
43670;SDS011;29267;50.906;7.248;2023-07-31T14:37:28;1.83;;;1.30;;
43670;SDS011;29267;50.906;7.248;2023-07-31T14:40:05;2.85;;;1.65;;
43670;SDS011;29267;50.906;7.248;2023-07-31T14:42:32;3.17;;;1.77;;
43670;SDS011;29267;50.906;7.248;2023-07-31T14:44:57;3.58;;;1.80;;
43670;SDS011;29267;50.906;7.248;2023-07-31T14:47:23;3.75;;;1.70;;
43670;SDS011;29267;50.906;7.248;2023-07-31T14:49:48;2.42;;;1.80;;
43670;SDS011;29267;50.906;7.248;2023-07-31T14:52:14;3.38;;;1.88;;
43670;SDS011;29267;50.906;7.248;2023-07-31T14:54:39;2.35;;;1.70;;
43670;SDS011;29267;50.906;7.248;2023-07-31T14:57:05;3.75;;;2.00;;
43670;SDS011;29267;50.906;7.248;2023-07-31T14:59:31;3.08;;;1.50;;
43670;SDS011;29267;50.906;7.248;2023-07-31T15:01:56;2.13;;;1.60;;
43670;SDS011;29267;50.906;7.248;2023-07-31T15:04:22;2.83;;;1.67;;
43670;SDS011;29267;50.906;7.248;2023-07-31T15:06:48;2.67;;;1.60;;
43670;SDS011;29267;50.906;7.248;2023-07-31T15:09:15;5.15;;;1.90;;
43670;SDS011;29267;50.906;7.248;2023-07-31T15:11:40;4.40;;;1.58;;